sensor_id;sensor_type;location;lat;lon;timestamp;P1;durP1;ratioP1;P2;durP2;ratioP2
29452;SDS011;16424;50.956;5.320;2023-04-24T00:01:31;10.23;;;5.70;;
29452;SDS011;16424;50.956;5.320;2023-04-24T00:03:59;11.05;;;6.40;;
29452;SDS011;16424;50.956;5.320;2023-04-24T00:06:25;12.80;;;6.95;;
29452;SDS011;16424;50.956;5.320;2023-04-24T00:08:58;11.18;;;6.55;;
29452;SDS011;16424;50.956;5.320;2023-04-24T00:11:26;14.50;;;6.75;;
29452;SDS011;16424;50.956;5.320;2023-04-24T00:13:52;16.65;;;7.95;;
29452;SDS011;16424;50.956;5.320;2023-04-24T00:16:17;13.77;;;8.27;;
29452;SDS011;16424;50.956;5.320;2023-04-24T00:18:43;13.93;;;8.25;;
29452;SDS011;16424;50.956;5.320;2023-04-24T00:21:10;13.15;;;7.30;;
29452;SDS011;16424;50.956;5.320;2023-04-24T00:23:35;14.50;;;8.05;;
29452;SDS011;16424;50.956;5.320;2023-04-24T00:26:01;11.63;;;7.47;;
29452;SDS011;16424;50.956;5.320;2023-04-24T00:28:27;17.35;;;7.65;;
29452;SDS011;16424;50.956;5.320;2023-04-24T00:30:53;12.68;;;7.20;;
29452;SDS011;16424;50.956;5.320;2023-04-24T00:33:19;10.90;;;8.02;;
29452;SDS011;16424;50.956;5.320;2023-04-24T00:35:45;12.85;;;7.25;;
29452;SDS011;16424;50.956;5.320;2023-04-24T00:38:10;12.35;;;7.47;;
29452;SDS011;16424;50.956;5.320;2023-04-24T00:40:36;13.65;;;7.80;;
29452;SDS011;16424;50.956;5.320;2023-04-24T00:43:02;18.63;;;8.35;;
29452;SDS011;16424;50.956;5.320;2023-04-24T00:45:27;16.98;;;9.75;;
29452;SDS011;16424;50.956;5.320;2023-04-24T00:47:53;14.65;;;8.15;;
29452;SDS011;16424;50.956;5.320;2023-04-24T00:50:20;15.50;;;8.82;;
29452;SDS011;16424;50.956;5.320;2023-04-24T00:52:46;13.45;;;8.85;;
29452;SDS011;16424;50.956;5.320;2023-04-24T00:55:12;21.55;;;10.48;;
29452;SDS011;16424;50.956;5.320;2023-04-24T00:57:38;15.30;;;8.88;;
29452;SDS011;16424;50.956;5.320;2023-04-24T01:00:05;19.02;;;10.13;;
29452;SDS011;16424;50.956;5.320;2023-04-24T01:02:37;18.83;;;8.98;;
29452;SDS011;16424;50.956;5.320;2023-04-24T01:05:06;17.13;;;9.00;;
29452;SDS011;16424;50.956;5.320;2023-04-24T01:07:33;18.15;;;10.35;;
29452;SDS011;16424;50.956;5.320;2023-04-24T01:09:59;12.65;;;8.63;;
29452;SDS011;16424;50.956;5.320;2023-04-24T01:12:25;19.67;;;9.35;;
29452;SDS011;16424;50.956;5.320;2023-04-24T01:14:51;17.85;;;9.90;;
29452;SDS011;16424;50.956;5.320;2023-04-24T01:17:16;16.95;;;9.25;;
29452;SDS011;16424;50.956;5.320;2023-04-24T01:19:42;16.75;;;8.70;;
29452;SDS011;16424;50.956;5.320;2023-04-24T01:22:13;15.10;;;9.60;;
29452;SDS011;16424;50.956;5.320;2023-04-24T01:24:40;20.83;;;9.55;;
29452;SDS011;16424;50.956;5.320;2023-04-24T01:27:06;25.65;;;9.48;;
29452;SDS011;16424;50.956;5.320;2023-04-24T01:29:33;18.52;;;9.13;;
29452;SDS011;16424;50.956;5.320;2023-04-24T01:32:00;13.48;;;8.73;;
29452;SDS011;16424;50.956;5.320;2023-04-24T01:34:26;24.20;;;9.63;;
29452;SDS011;16424;50.956;5.320;2023-04-24T01:36:51;17.98;;;9.27;;
29452;SDS011;16424;50.956;5.320;2023-04-24T01:39:17;15.75;;;9.68;;
29452;SDS011;16424;50.956;5.320;2023-04-24T01:41:45;16.48;;;9.05;;
29452;SDS011;16424;50.956;5.320;2023-04-24T01:44:11;24.05;;;10.20;;
29452;SDS011;16424;50.956;5.320;2023-04-24T01:46:37;12.57;;;8.18;;
29452;SDS011;16424;50.956;5.320;2023-04-24T01:49:03;15.68;;;10.50;;
29452;SDS011;16424;50.956;5.320;2023-04-24T01:51:29;19.10;;;8.40;;
29452;SDS011;16424;50.956;5.320;2023-04-24T01:53:55;16.17;;;9.23;;
29452;SDS011;16424;50.956;5.320;2023-04-24T01:56:21;12.55;;;8.32;;
29452;SDS011;16424;50.956;5.320;2023-04-24T01:58:47;25.63;;;11.38;;
29452;SDS011;16424;50.956;5.320;2023-04-24T02:01:18;26.55;;;9.05;;
29452;SDS011;16424;50.956;5.320;2023-04-24T02:03:45;17.77;;;9.05;;
29452;SDS011;16424;50.956;5.320;2023-04-24T02:06:10;24.25;;;9.15;;
29452;SDS011;16424;50.956;5.320;2023-04-24T02:08:36;13.48;;;9.05;;
29452;SDS011;16424;50.956;5.320;2023-04-24T02:11:02;18.83;;;8.32;;
29452;SDS011;16424;50.956;5.320;2023-04-24T02:13:28;17.52;;;8.25;;
29452;SDS011;16424;50.956;5.320;2023-04-24T02:15:54;17.30;;;9.32;;
29452;SDS011;16424;50.956;5.320;2023-04-24T02:18:19;12.50;;;8.75;;
29452;SDS011;16424;50.956;5.320;2023-04-24T02:20:45;16.60;;;9.73;;
29452;SDS011;16424;50.956;5.320;2023-04-24T02:23:11;17.42;;;8.70;;
29452;SDS011;16424;50.956;5.320;2023-04-24T02:25:38;15.65;;;8.93;;
29452;SDS011;16424;50.956;5.320;2023-04-24T02:28:03;13.93;;;9.38;;
29452;SDS011;16424;50.956;5.320;2023-04-24T02:30:29;16.55;;;9.50;;
29452;SDS011;16424;50.956;5.320;2023-04-24T02:32:55;16.27;;;8.18;;
29452;SDS011;16424;50.956;5.320;2023-04-24T02:35:21;15.40;;;8.82;;
29452;SDS011;16424;50.956;5.320;2023-04-24T02:37:47;19.38;;;9.32;;
29452;SDS011;16424;50.956;5.320;2023-04-24T02:40:13;20.35;;;8.82;;
29452;SDS011;16424;50.956;5.320;2023-04-24T02:42:38;19.48;;;9.05;;
29452;SDS011;16424;50.956;5.320;2023-04-24T02:45:04;11.63;;;7.82;;
29452;SDS011;16424;50.956;5.320;2023-04-24T02:47:30;13.10;;;7.78;;
29452;SDS011;16424;50.956;5.320;2023-04-24T02:49:56;18.08;;;9.70;;
29452;SDS011;16424;50.956;5.320;2023-04-24T02:52:21;12.52;;;8.77;;
29452;SDS011;16424;50.956;5.320;2023-04-24T02:54:47;15.57;;;8.50;;
29452;SDS011;16424;50.956;5.320;2023-04-24T02:57:13;13.60;;;7.93;;
29452;SDS011;16424;50.956;5.320;2023-04-24T02:59:38;13.90;;;7.53;;
29452;SDS011;16424;50.956;5.320;2023-04-24T03:02:04;14.60;;;8.52;;
29452;SDS011;16424;50.956;5.320;2023-04-24T03:04:30;11.90;;;7.90;;
29452;SDS011;16424;50.956;5.320;2023-04-24T03:06:56;13.35;;;8.70;;
29452;SDS011;16424;50.956;5.320;2023-04-24T03:09:22;13.98;;;7.88;;
29452;SDS011;16424;50.956;5.320;2023-04-24T03:11:48;14.02;;;9.10;;
29452;SDS011;16424;50.956;5.320;2023-04-24T03:14:15;17.17;;;8.48;;
29452;SDS011;16424;50.956;5.320;2023-04-24T03:16:41;13.80;;;8.48;;
29452;SDS011;16424;50.956;5.320;2023-04-24T03:19:06;12.68;;;8.82;;
29452;SDS011;16424;50.956;5.320;2023-04-24T03:21:32;14.13;;;8.77;;
29452;SDS011;16424;50.956;5.320;2023-04-24T03:23:58;15.13;;;8.38;;
29452;SDS011;16424;50.956;5.320;2023-04-24T03:26:24;15.13;;;9.32;;
29452;SDS011;16424;50.956;5.320;2023-04-24T03:28:50;16.65;;;8.40;;
29452;SDS011;16424;50.956;5.320;2023-04-24T03:31:15;12.43;;;8.15;;
29452;SDS011;16424;50.956;5.320;2023-04-24T03:33:41;13.90;;;9.05;;
29452;SDS011;16424;50.956;5.320;2023-04-24T03:36:07;17.85;;;9.88;;
29452;SDS011;16424;50.956;5.320;2023-04-24T03:38:33;16.02;;;8.75;;
29452;SDS011;16424;50.956;5.320;2023-04-24T03:40:59;14.07;;;8.57;;
29452;SDS011;16424;50.956;5.320;2023-04-24T03:43:24;15.95;;;8.98;;
29452;SDS011;16424;50.956;5.320;2023-04-24T03:45:52;16.60;;;9.35;;
29452;SDS011;16424;50.956;5.320;2023-04-24T03:48:17;15.52;;;8.73;;
29452;SDS011;16424;50.956;5.320;2023-04-24T03:50:43;15.23;;;9.40;;
29452;SDS011;16424;50.956;5.320;2023-04-24T03:53:09;15.07;;;8.20;;
29452;SDS011;16424;50.956;5.320;2023-04-24T03:55:35;15.55;;;8.60;;
29452;SDS011;16424;50.956;5.320;2023-04-24T03:58:00;15.05;;;8.23;;
29452;SDS011;16424;50.956;5.320;2023-04-24T04:00:26;17.02;;;8.07;;
29452;SDS011;16424;50.956;5.320;2023-04-24T04:02:52;11.63;;;8.32;;
29452;SDS011;16424;50.956;5.320;2023-04-24T04:05:18;17.58;;;8.82;;
29452;SDS011;16424;50.956;5.320;2023-04-24T04:07:43;16.20;;;8.85;;
29452;SDS011;16424;50.956;5.320;2023-04-24T04:10:09;18.17;;;8.95;;
29452;SDS011;16424;50.956;5.320;2023-04-24T04:12:35;15.82;;;7.97;;
29452;SDS011;16424;50.956;5.320;2023-04-24T04:15:01;14.75;;;8.80;;
29452;SDS011;16424;50.956;5.320;2023-04-24T04:17:26;14.77;;;8.63;;
29452;SDS011;16424;50.956;5.320;2023-04-24T04:19:52;15.02;;;8.40;;
29452;SDS011;16424;50.956;5.320;2023-04-24T04:22:17;15.13;;;7.65;;
29452;SDS011;16424;50.956;5.320;2023-04-24T04:24:43;13.00;;;8.20;;
29452;SDS011;16424;50.956;5.320;2023-04-24T04:27:09;12.77;;;7.97;;
29452;SDS011;16424;50.956;5.320;2023-04-24T04:29:35;10.13;;;6.47;;
29452;SDS011;16424;50.956;5.320;2023-04-24T04:32:01;14.32;;;7.22;;
29452;SDS011;16424;50.956;5.320;2023-04-24T04:34:27;13.02;;;7.15;;
29452;SDS011;16424;50.956;5.320;2023-04-24T04:36:54;10.38;;;6.78;;
29452;SDS011;16424;50.956;5.320;2023-04-24T04:39:20;14.15;;;7.28;;
29452;SDS011;16424;50.956;5.320;2023-04-24T04:41:46;12.88;;;6.65;;
29452;SDS011;16424;50.956;5.320;2023-04-24T04:44:13;12.45;;;7.25;;
29452;SDS011;16424;50.956;5.320;2023-04-24T04:46:39;14.00;;;7.35;;
29452;SDS011;16424;50.956;5.320;2023-04-24T04:49:06;10.50;;;6.38;;
29452;SDS011;16424;50.956;5.320;2023-04-24T04:51:33;10.82;;;6.10;;
29452;SDS011;16424;50.956;5.320;2023-04-24T04:53:59;9.45;;;6.85;;
29452;SDS011;16424;50.956;5.320;2023-04-24T04:56:25;16.17;;;6.93;;
29452;SDS011;16424;50.956;5.320;2023-04-24T04:58:51;13.05;;;6.70;;
29452;SDS011;16424;50.956;5.320;2023-04-24T05:01:16;10.98;;;6.32;;
29452;SDS011;16424;50.956;5.320;2023-04-24T05:03:42;13.57;;;7.47;;
29452;SDS011;16424;50.956;5.320;2023-04-24T05:06:08;13.93;;;6.53;;
29452;SDS011;16424;50.956;5.320;2023-04-24T05:08:34;11.50;;;5.90;;
29452;SDS011;16424;50.956;5.320;2023-04-24T05:10:59;9.32;;;5.75;;
29452;SDS011;16424;50.956;5.320;2023-04-24T05:13:25;9.98;;;5.72;;
29452;SDS011;16424;50.956;5.320;2023-04-24T05:15:51;11.93;;;6.15;;
29452;SDS011;16424;50.956;5.320;2023-04-24T05:18:17;10.15;;;5.68;;
29452;SDS011;16424;50.956;5.320;2023-04-24T05:20:42;8.32;;;5.40;;
29452;SDS011;16424;50.956;5.320;2023-04-24T05:23:09;8.07;;;5.45;;
29452;SDS011;16424;50.956;5.320;2023-04-24T05:25:35;10.80;;;4.50;;
29452;SDS011;16424;50.956;5.320;2023-04-24T05:28:01;7.40;;;5.25;;
29452;SDS011;16424;50.956;5.320;2023-04-24T05:30:27;8.95;;;5.40;;
29452;SDS011;16424;50.956;5.320;2023-04-24T05:32:53;7.90;;;5.15;;
29452;SDS011;16424;50.956;5.320;2023-04-24T05:35:18;8.73;;;5.35;;
29452;SDS011;16424;50.956;5.320;2023-04-24T05:37:44;9.82;;;4.78;;
29452;SDS011;16424;50.956;5.320;2023-04-24T05:40:10;5.90;;;4.10;;
29452;SDS011;16424;50.956;5.320;2023-04-24T05:42:36;6.70;;;4.20;;
29452;SDS011;16424;50.956;5.320;2023-04-24T05:45:02;5.05;;;3.25;;
29452;SDS011;16424;50.956;5.320;2023-04-24T05:47:28;5.13;;;3.53;;
29452;SDS011;16424;50.956;5.320;2023-04-24T05:49:53;5.65;;;3.45;;
29452;SDS011;16424;50.956;5.320;2023-04-24T05:52:19;6.55;;;3.50;;
29452;SDS011;16424;50.956;5.320;2023-04-24T05:54:45;9.07;;;3.40;;
29452;SDS011;16424;50.956;5.320;2023-04-24T05:57:11;7.60;;;4.50;;
29452;SDS011;16424;50.956;5.320;2023-04-24T05:59:36;8.55;;;4.85;;
29452;SDS011;16424;50.956;5.320;2023-04-24T06:02:06;10.82;;;4.63;;
29452;SDS011;16424;50.956;5.320;2023-04-24T06:04:32;9.95;;;5.50;;
29452;SDS011;16424;50.956;5.320;2023-04-24T06:06:58;9.40;;;5.72;;
29452;SDS011;16424;50.956;5.320;2023-04-24T06:09:24;14.90;;;5.20;;
29452;SDS011;16424;50.956;5.320;2023-04-24T06:11:50;9.63;;;5.82;;
29452;SDS011;16424;50.956;5.320;2023-04-24T06:14:18;10.38;;;6.00;;
29452;SDS011;16424;50.956;5.320;2023-04-24T06:16:44;10.90;;;5.90;;
29452;SDS011;16424;50.956;5.320;2023-04-24T06:19:10;11.00;;;6.03;;
29452;SDS011;16424;50.956;5.320;2023-04-24T06:21:35;10.95;;;6.32;;
29452;SDS011;16424;50.956;5.320;2023-04-24T06:24:01;11.45;;;6.05;;
29452;SDS011;16424;50.956;5.320;2023-04-24T06:26:28;9.85;;;6.70;;
29452;SDS011;16424;50.956;5.320;2023-04-24T06:28:54;12.07;;;7.25;;
29452;SDS011;16424;50.956;5.320;2023-04-24T06:31:20;12.45;;;7.00;;
29452;SDS011;16424;50.956;5.320;2023-04-24T06:33:46;9.27;;;6.50;;
29452;SDS011;16424;50.956;5.320;2023-04-24T06:36:13;9.35;;;5.70;;
29452;SDS011;16424;50.956;5.320;2023-04-24T06:38:39;8.48;;;5.80;;
29452;SDS011;16424;50.956;5.320;2023-04-24T06:41:05;12.07;;;6.22;;
29452;SDS011;16424;50.956;5.320;2023-04-24T06:43:31;7.60;;;5.03;;
29452;SDS011;16424;50.956;5.320;2023-04-24T06:45:57;11.10;;;5.97;;
29452;SDS011;16424;50.956;5.320;2023-04-24T06:48:23;9.77;;;5.85;;
29452;SDS011;16424;50.956;5.320;2023-04-24T06:50:50;13.02;;;6.03;;
29452;SDS011;16424;50.956;5.320;2023-04-24T06:53:16;9.50;;;6.40;;
29452;SDS011;16424;50.956;5.320;2023-04-24T06:55:42;12.95;;;6.55;;
29452;SDS011;16424;50.956;5.320;2023-04-24T06:58:09;12.05;;;5.50;;
29452;SDS011;16424;50.956;5.320;2023-04-24T07:00:35;13.27;;;6.72;;
29452;SDS011;16424;50.956;5.320;2023-04-24T07:03:01;9.80;;;5.75;;
29452;SDS011;16424;50.956;5.320;2023-04-24T07:05:27;12.07;;;7.15;;
29452;SDS011;16424;50.956;5.320;2023-04-24T07:07:54;12.38;;;7.15;;
29452;SDS011;16424;50.956;5.320;2023-04-24T07:10:19;12.25;;;7.03;;
29452;SDS011;16424;50.956;5.320;2023-04-24T07:12:45;10.43;;;6.80;;
29452;SDS011;16424;50.956;5.320;2023-04-24T07:15:12;13.73;;;7.60;;
29452;SDS011;16424;50.956;5.320;2023-04-24T07:17:37;16.52;;;7.88;;
29452;SDS011;16424;50.956;5.320;2023-04-24T07:20:04;12.55;;;7.30;;
29452;SDS011;16424;50.956;5.320;2023-04-24T07:22:30;14.75;;;7.28;;
29452;SDS011;16424;50.956;5.320;2023-04-24T07:24:56;13.20;;;8.25;;
29452;SDS011;16424;50.956;5.320;2023-04-24T07:27:21;14.82;;;8.02;;
29452;SDS011;16424;50.956;5.320;2023-04-24T07:29:47;13.93;;;8.25;;
29452;SDS011;16424;50.956;5.320;2023-04-24T07:32:13;18.42;;;8.82;;
29452;SDS011;16424;50.956;5.320;2023-04-24T07:34:38;15.60;;;8.30;;
29452;SDS011;16424;50.956;5.320;2023-04-24T07:37:04;13.55;;;7.25;;
29452;SDS011;16424;50.956;5.320;2023-04-24T07:39:30;16.15;;;7.43;;
29452;SDS011;16424;50.956;5.320;2023-04-24T07:41:56;14.68;;;7.97;;
29452;SDS011;16424;50.956;5.320;2023-04-24T07:44:22;13.30;;;8.10;;
29452;SDS011;16424;50.956;5.320;2023-04-24T07:46:47;18.63;;;9.00;;
29452;SDS011;16424;50.956;5.320;2023-04-24T07:49:13;12.57;;;7.70;;
29452;SDS011;16424;50.956;5.320;2023-04-24T07:51:39;15.75;;;7.93;;
29452;SDS011;16424;50.956;5.320;2023-04-24T07:54:05;11.60;;;7.10;;
29452;SDS011;16424;50.956;5.320;2023-04-24T07:56:33;19.58;;;8.02;;
29452;SDS011;16424;50.956;5.320;2023-04-24T07:58:59;17.33;;;7.93;;
29452;SDS011;16424;50.956;5.320;2023-04-24T08:01:26;12.88;;;6.68;;
29452;SDS011;16424;50.956;5.320;2023-04-24T08:03:52;15.32;;;8.07;;
29452;SDS011;16424;50.956;5.320;2023-04-24T08:06:17;15.15;;;8.32;;
29452;SDS011;16424;50.956;5.320;2023-04-24T08:08:43;19.50;;;9.27;;
29452;SDS011;16424;50.956;5.320;2023-04-24T08:11:09;20.92;;;9.18;;
29452;SDS011;16424;50.956;5.320;2023-04-24T08:13:34;16.00;;;8.95;;
29452;SDS011;16424;50.956;5.320;2023-04-24T08:16:00;17.40;;;7.95;;
29452;SDS011;16424;50.956;5.320;2023-04-24T08:18:26;22.73;;;9.32;;
29452;SDS011;16424;50.956;5.320;2023-04-24T08:20:52;22.75;;;9.30;;
29452;SDS011;16424;50.956;5.320;2023-04-24T08:23:17;22.17;;;9.13;;
29452;SDS011;16424;50.956;5.320;2023-04-24T08:25:43;10.82;;;7.15;;
29452;SDS011;16424;50.956;5.320;2023-04-24T08:28:09;19.58;;;7.10;;
29452;SDS011;16424;50.956;5.320;2023-04-24T08:30:35;15.45;;;7.20;;
29452;SDS011;16424;50.956;5.320;2023-04-24T08:33:01;18.13;;;7.45;;
29452;SDS011;16424;50.956;5.320;2023-04-24T08:35:27;15.73;;;7.45;;
29452;SDS011;16424;50.956;5.320;2023-04-24T08:37:53;14.38;;;6.78;;
29452;SDS011;16424;50.956;5.320;2023-04-24T08:40:18;15.05;;;7.85;;
29452;SDS011;16424;50.956;5.320;2023-04-24T08:42:51;11.68;;;6.78;;
29452;SDS011;16424;50.956;5.320;2023-04-24T08:45:20;18.10;;;7.03;;
29452;SDS011;16424;50.956;5.320;2023-04-24T08:47:46;10.90;;;6.97;;
29452;SDS011;16424;50.956;5.320;2023-04-24T08:50:14;11.45;;;5.70;;
29452;SDS011;16424;50.956;5.320;2023-04-24T08:52:40;17.23;;;6.28;;
29452;SDS011;16424;50.956;5.320;2023-04-24T08:55:07;15.10;;;6.07;;
29452;SDS011;16424;50.956;5.320;2023-04-24T08:57:33;17.98;;;6.57;;
29452;SDS011;16424;50.956;5.320;2023-04-24T09:00:00;17.23;;;5.97;;
29452;SDS011;16424;50.956;5.320;2023-04-24T09:02:27;26.02;;;5.63;;
29452;SDS011;16424;50.956;5.320;2023-04-24T09:04:53;13.63;;;5.53;;
29452;SDS011;16424;50.956;5.320;2023-04-24T09:07:22;10.18;;;5.13;;
29452;SDS011;16424;50.956;5.320;2023-04-24T09:09:50;10.32;;;4.65;;
29452;SDS011;16424;50.956;5.320;2023-04-24T09:12:17;10.75;;;4.47;;
29452;SDS011;16424;50.956;5.320;2023-04-24T09:14:44;11.70;;;4.07;;
29452;SDS011;16424;50.956;5.320;2023-04-24T09:17:11;7.25;;;4.28;;
29452;SDS011;16424;50.956;5.320;2023-04-24T09:19:37;9.02;;;3.47;;
29452;SDS011;16424;50.956;5.320;2023-04-24T09:22:06;11.23;;;3.40;;
29452;SDS011;16424;50.956;5.320;2023-04-24T09:24:33;12.57;;;3.50;;
29452;SDS011;16424;50.956;5.320;2023-04-24T09:27:00;11.95;;;3.60;;
29452;SDS011;16424;50.956;5.320;2023-04-24T09:29:26;4.80;;;2.92;;
29452;SDS011;16424;50.956;5.320;2023-04-24T09:31:52;7.40;;;3.60;;
29452;SDS011;16424;50.956;5.320;2023-04-24T09:34:22;7.55;;;4.07;;
29452;SDS011;16424;50.956;5.320;2023-04-24T09:36:49;9.48;;;4.25;;
29452;SDS011;16424;50.956;5.320;2023-04-24T09:39:15;9.57;;;4.03;;
29452;SDS011;16424;50.956;5.320;2023-04-24T09:41:45;9.07;;;4.95;;
29452;SDS011;16424;50.956;5.320;2023-04-24T09:44:17;11.90;;;4.28;;
29452;SDS011;16424;50.956;5.320;2023-04-24T09:46:53;15.10;;;4.85;;
29452;SDS011;16424;50.956;5.320;2023-04-24T09:49:22;15.13;;;4.45;;
29452;SDS011;16424;50.956;5.320;2023-04-24T09:51:51;11.93;;;4.57;;
29452;SDS011;16424;50.956;5.320;2023-04-24T09:54:26;11.05;;;4.78;;
29452;SDS011;16424;50.956;5.320;2023-04-24T09:56:52;15.20;;;3.92;;
29452;SDS011;16424;50.956;5.320;2023-04-24T09:59:19;14.27;;;4.63;;
29452;SDS011;16424;50.956;5.320;2023-04-24T10:01:45;9.18;;;3.83;;
29452;SDS011;16424;50.956;5.320;2023-04-24T10:04:20;13.07;;;4.32;;
29452;SDS011;16424;50.956;5.320;2023-04-24T10:06:49;11.95;;;4.72;;
29452;SDS011;16424;50.956;5.320;2023-04-24T10:09:16;12.07;;;4.47;;
29452;SDS011;16424;50.956;5.320;2023-04-24T10:11:44;17.25;;;5.70;;
29452;SDS011;16424;50.956;5.320;2023-04-24T10:14:12;14.05;;;5.38;;
29452;SDS011;16424;50.956;5.320;2023-04-24T10:16:40;16.35;;;4.70;;
29452;SDS011;16424;50.956;5.320;2023-04-24T10:19:06;11.27;;;4.47;;
29452;SDS011;16424;50.956;5.320;2023-04-24T10:21:32;7.82;;;3.40;;
29452;SDS011;16424;50.956;5.320;2023-04-24T10:23:59;13.75;;;4.70;;
29452;SDS011;16424;50.956;5.320;2023-04-24T10:26:28;16.60;;;5.07;;
29452;SDS011;16424;50.956;5.320;2023-04-24T10:28:54;7.03;;;4.13;;
29452;SDS011;16424;50.956;5.320;2023-04-24T10:31:23;9.93;;;4.63;;
29452;SDS011;16424;50.956;5.320;2023-04-24T10:33:50;10.02;;;4.40;;
29452;SDS011;16424;50.956;5.320;2023-04-24T10:36:17;9.88;;;5.00;;
29452;SDS011;16424;50.956;5.320;2023-04-24T10:38:43;14.32;;;4.50;;
29452;SDS011;16424;50.956;5.320;2023-04-24T10:41:12;14.00;;;5.00;;
29452;SDS011;16424;50.956;5.320;2023-04-24T10:43:44;10.98;;;4.70;;
29452;SDS011;16424;50.956;5.320;2023-04-24T10:46:10;11.70;;;5.05;;
29452;SDS011;16424;50.956;5.320;2023-04-24T10:48:51;15.10;;;5.70;;
29452;SDS011;16424;50.956;5.320;2023-04-24T10:51:21;11.02;;;5.32;;
29452;SDS011;16424;50.956;5.320;2023-04-24T10:53:47;15.70;;;5.57;;
29452;SDS011;16424;50.956;5.320;2023-04-24T10:56:15;15.30;;;5.03;;
29452;SDS011;16424;50.956;5.320;2023-04-24T10:58:42;14.95;;;5.53;;
29452;SDS011;16424;50.956;5.320;2023-04-24T11:03:55;18.33;;;5.20;;
29452;SDS011;16424;50.956;5.320;2023-04-24T11:06:35;13.57;;;4.60;;
29452;SDS011;16424;50.956;5.320;2023-04-24T11:09:05;10.35;;;5.53;;
29452;SDS011;16424;50.956;5.320;2023-04-24T11:11:32;9.63;;;4.50;;
29452;SDS011;16424;50.956;5.320;2023-04-24T11:16:26;9.85;;;4.20;;
29452;SDS011;16424;50.956;5.320;2023-04-24T11:19:02;14.10;;;4.72;;
29452;SDS011;16424;50.956;5.320;2023-04-24T11:21:38;15.07;;;4.37;;
29452;SDS011;16424;50.956;5.320;2023-04-24T11:27:06;11.00;;;4.57;;
29452;SDS011;16424;50.956;5.320;2023-04-24T11:37:50;13.25;;;4.95;;
29452;SDS011;16424;50.956;5.320;2023-04-24T11:40:19;16.58;;;5.25;;
29452;SDS011;16424;50.956;5.320;2023-04-24T11:42:50;11.65;;;5.18;;
29452;SDS011;16424;50.956;5.320;2023-04-24T11:47:48;24.27;;;3.20;;
29452;SDS011;16424;50.956;5.320;2023-04-24T11:50:16;9.50;;;3.85;;
29452;SDS011;16424;50.956;5.320;2023-04-24T11:52:44;6.35;;;3.33;;
29452;SDS011;16424;50.956;5.320;2023-04-24T11:57:42;7.95;;;3.33;;
29452;SDS011;16424;50.956;5.320;2023-04-24T12:00:31;9.82;;;3.95;;
29452;SDS011;16424;50.956;5.320;2023-04-24T12:03:09;9.88;;;3.58;;
29452;SDS011;16424;50.956;5.320;2023-04-24T12:05:36;10.10;;;3.67;;
29452;SDS011;16424;50.956;5.320;2023-04-24T12:08:03;6.47;;;3.40;;
29452;SDS011;16424;50.956;5.320;2023-04-24T12:10:30;8.93;;;3.78;;
29452;SDS011;16424;50.956;5.320;2023-04-24T12:12:57;8.00;;;3.88;;
29452;SDS011;16424;50.956;5.320;2023-04-24T12:15:24;5.00;;;3.20;;
29452;SDS011;16424;50.956;5.320;2023-04-24T12:17:51;5.65;;;2.80;;
29452;SDS011;16424;50.956;5.320;2023-04-24T12:20:17;4.40;;;2.85;;
29452;SDS011;16424;50.956;5.320;2023-04-24T12:22:53;4.53;;;2.50;;
29452;SDS011;16424;50.956;5.320;2023-04-24T12:25:20;6.65;;;2.83;;
29452;SDS011;16424;50.956;5.320;2023-04-24T12:30:28;7.88;;;3.30;;
29452;SDS011;16424;50.956;5.320;2023-04-24T12:32:56;8.60;;;3.92;;
29452;SDS011;16424;50.956;5.320;2023-04-24T12:35:23;6.65;;;3.17;;
29452;SDS011;16424;50.956;5.320;2023-04-24T12:37:51;9.40;;;3.72;;
29452;SDS011;16424;50.956;5.320;2023-04-24T12:40:17;11.07;;;2.92;;
29452;SDS011;16424;50.956;5.320;2023-04-24T12:42:44;6.28;;;3.40;;
29452;SDS011;16424;50.956;5.320;2023-04-24T12:45:11;6.05;;;2.65;;
29452;SDS011;16424;50.956;5.320;2023-04-24T12:47:38;5.65;;;2.75;;
29452;SDS011;16424;50.956;5.320;2023-04-24T12:50:05;8.68;;;3.80;;
29452;SDS011;16424;50.956;5.320;2023-04-24T12:52:32;6.65;;;3.40;;
29452;SDS011;16424;50.956;5.320;2023-04-24T12:54:58;5.05;;;2.47;;
29452;SDS011;16424;50.956;5.320;2023-04-24T12:57:25;11.98;;;2.80;;
29452;SDS011;16424;50.956;5.320;2023-04-24T12:59:55;7.47;;;2.90;;
29452;SDS011;16424;50.956;5.320;2023-04-24T13:02:25;7.68;;;3.67;;
29452;SDS011;16424;50.956;5.320;2023-04-24T13:04:52;4.65;;;2.45;;
29452;SDS011;16424;50.956;5.320;2023-04-24T13:07:19;6.32;;;2.60;;
29452;SDS011;16424;50.956;5.320;2023-04-24T13:09:45;5.60;;;2.75;;
29452;SDS011;16424;50.956;5.320;2023-04-24T13:12:13;9.98;;;2.70;;
29452;SDS011;16424;50.956;5.320;2023-04-24T13:14:40;8.75;;;2.30;;
29452;SDS011;16424;50.956;5.320;2023-04-24T13:17:05;7.43;;;3.15;;
29452;SDS011;16424;50.956;5.320;2023-04-24T13:19:39;8.82;;;3.22;;
29452;SDS011;16424;50.956;5.320;2023-04-24T13:22:06;6.82;;;2.53;;
29452;SDS011;16424;50.956;5.320;2023-04-24T13:24:34;7.47;;;2.53;;
29452;SDS011;16424;50.956;5.320;2023-04-24T13:27:00;14.73;;;2.63;;
29452;SDS011;16424;50.956;5.320;2023-04-24T13:29:26;6.03;;;3.05;;
29452;SDS011;16424;50.956;5.320;2023-04-24T13:31:52;7.75;;;2.50;;
29452;SDS011;16424;50.956;5.320;2023-04-24T13:34:24;5.97;;;2.30;;
29452;SDS011;16424;50.956;5.320;2023-04-24T13:36:52;10.40;;;2.85;;
29452;SDS011;16424;50.956;5.320;2023-04-24T13:39:19;5.93;;;2.70;;
29452;SDS011;16424;50.956;5.320;2023-04-24T13:41:44;7.32;;;2.80;;
29452;SDS011;16424;50.956;5.320;2023-04-24T13:44:12;5.97;;;3.03;;
29452;SDS011;16424;50.956;5.320;2023-04-24T13:46:38;12.27;;;4.30;;
29452;SDS011;16424;50.956;5.320;2023-04-24T13:49:04;6.82;;;2.95;;
29452;SDS011;16424;50.956;5.320;2023-04-24T13:51:30;3.70;;;2.55;;
29452;SDS011;16424;50.956;5.320;2023-04-24T13:53:55;7.10;;;3.13;;
29452;SDS011;16424;50.956;5.320;2023-04-24T13:56:21;5.20;;;3.00;;
29452;SDS011;16424;50.956;5.320;2023-04-24T13:58:47;15.60;;;3.03;;
29452;SDS011;16424;50.956;5.320;2023-04-24T14:01:13;5.97;;;2.65;;
29452;SDS011;16424;50.956;5.320;2023-04-24T14:03:40;8.18;;;2.97;;
29452;SDS011;16424;50.956;5.320;2023-04-24T14:06:06;8.18;;;2.15;;
29452;SDS011;16424;50.956;5.320;2023-04-24T14:08:32;6.15;;;2.38;;
29452;SDS011;16424;50.956;5.320;2023-04-24T14:10:58;7.78;;;2.53;;
29452;SDS011;16424;50.956;5.320;2023-04-24T14:13:23;9.27;;;2.67;;
29452;SDS011;16424;50.956;5.320;2023-04-24T14:15:50;5.97;;;2.70;;
29452;SDS011;16424;50.956;5.320;2023-04-24T14:18:17;6.05;;;2.38;;
29452;SDS011;16424;50.956;5.320;2023-04-24T14:20:43;4.32;;;2.42;;
29452;SDS011;16424;50.956;5.320;2023-04-24T14:23:09;8.63;;;2.40;;
29452;SDS011;16424;50.956;5.320;2023-04-24T14:25:35;5.15;;;2.50;;
29452;SDS011;16424;50.956;5.320;2023-04-24T14:28:00;5.82;;;2.38;;
29452;SDS011;16424;50.956;5.320;2023-04-24T14:30:26;6.40;;;2.35;;
29452;SDS011;16424;50.956;5.320;2023-04-24T14:32:51;4.88;;;2.55;;
29452;SDS011;16424;50.956;5.320;2023-04-24T14:35:17;5.18;;;2.28;;
29452;SDS011;16424;50.956;5.320;2023-04-24T14:37:43;7.32;;;2.50;;
29452;SDS011;16424;50.956;5.320;2023-04-24T14:40:09;4.25;;;2.30;;
29452;SDS011;16424;50.956;5.320;2023-04-24T14:42:35;5.85;;;2.58;;
29452;SDS011;16424;50.956;5.320;2023-04-24T14:45:00;3.00;;;2.20;;
29452;SDS011;16424;50.956;5.320;2023-04-24T14:47:26;5.53;;;1.80;;
29452;SDS011;16424;50.956;5.320;2023-04-24T14:49:52;3.55;;;2.00;;
29452;SDS011;16424;50.956;5.320;2023-04-24T14:52:18;4.07;;;2.42;;
29452;SDS011;16424;50.956;5.320;2023-04-24T14:54:44;5.45;;;2.28;;
29452;SDS011;16424;50.956;5.320;2023-04-24T14:57:10;5.85;;;2.03;;
29452;SDS011;16424;50.956;5.320;2023-04-24T14:59:35;8.32;;;2.00;;